createdAt,value
2024-04-16T00:01:01.559Z,8.32
2024-04-16T00:03:29.297Z,8.35
2024-04-16T00:05:57.206Z,8.90
2024-04-16T00:08:24.845Z,5.03
2024-04-16T00:10:52.397Z,7.85
2024-04-16T00:13:20.320Z,5.70
2024-04-16T00:15:47.820Z,9.52
2024-04-16T00:18:15.337Z,7.50
2024-04-16T00:20:42.910Z,6.72
2024-04-16T00:23:10.631Z,6.22
2024-04-16T00:25:38.207Z,6.40
2024-04-16T00:28:05.842Z,7.88
2024-04-16T00:30:33.400Z,8.77
2024-04-16T00:33:00.976Z,6.90
2024-04-16T00:35:28.540Z,7.85
2024-04-16T00:37:56.088Z,12.90
2024-04-16T00:40:23.630Z,7.35
2024-04-16T00:42:52.561Z,6.72
2024-04-16T00:45:20.154Z,9.65
2024-04-16T00:47:47.828Z,8.48
2024-04-16T00:50:16.266Z,10.68
2024-04-16T00:52:44.241Z,7.55
2024-04-16T00:55:12.311Z,12.55
2024-04-16T00:57:40.422Z,7.47
2024-04-16T01:00:08.509Z,8.30
2024-04-16T01:02:36.199Z,10.45
2024-04-16T01:05:03.876Z,4.15
2024-04-16T01:07:33.003Z,13.88
2024-04-16T01:10:00.734Z,7.40
2024-04-16T01:12:28.315Z,6.40
2024-04-16T01:14:55.958Z,4.10
2024-04-16T01:17:23.593Z,8.13
2024-04-16T01:19:51.087Z,5.38
2024-04-16T01:22:18.552Z,8.88
2024-04-16T01:24:46.150Z,10.18
2024-04-16T01:27:13.647Z,8.25
2024-04-16T01:29:41.152Z,7.30
2024-04-16T01:32:08.777Z,12.25
2024-04-16T01:34:36.380Z,6.88
2024-04-16T01:37:03.991Z,8.35
2024-04-16T01:39:32.180Z,9.32
2024-04-16T01:42:01.068Z,5.20
2024-04-16T01:44:28.671Z,10.13
2024-04-16T01:46:56.153Z,5.88
2024-04-16T01:49:23.640Z,8.50
2024-04-16T01:51:51.159Z,5.78
2024-04-16T01:54:18.642Z,9.50
2024-04-16T01:56:46.133Z,6.40
2024-04-16T01:59:13.649Z,8.60
2024-04-16T02:01:41.205Z,7.97
2024-04-16T02:04:08.814Z,9.18
2024-04-16T02:06:36.528Z,7.55
2024-04-16T02:09:04.230Z,12.63
2024-04-16T02:11:31.747Z,13.05
2024-04-16T02:13:59.338Z,8.50
2024-04-16T02:16:27.263Z,13.05
2024-04-16T02:18:54.814Z,10.35
2024-04-16T02:21:22.345Z,9.85
2024-04-16T02:23:49.857Z,19.27
2024-04-16T02:26:17.467Z,8.57
2024-04-16T02:28:46.035Z,12.82
2024-04-16T02:31:13.624Z,7.78
2024-04-16T02:33:41.214Z,11.25
2024-04-16T02:36:08.744Z,9.68
2024-04-16T02:38:36.252Z,8.98
2024-04-16T02:41:03.820Z,5.78
2024-04-16T02:43:31.462Z,9.77
2024-04-16T02:45:59.232Z,8.90
2024-04-16T02:48:26.818Z,4.88
2024-04-16T02:50:55.630Z,7.40
2024-04-16T02:53:23.241Z,7.93
2024-04-16T02:55:50.738Z,7.45
2024-04-16T02:58:18.278Z,6.18
2024-04-16T03:00:46.203Z,7.32
2024-04-16T03:03:13.828Z,10.23
2024-04-16T03:05:41.324Z,8.52
2024-04-16T03:08:08.877Z,7.60
2024-04-16T03:10:40.746Z,9.98
2024-04-16T03:13:08.338Z,7.68
2024-04-16T03:15:35.992Z,8.98
2024-04-16T03:18:03.693Z,9.23
2024-04-16T03:20:31.286Z,6.57
2024-04-16T03:22:59.017Z,5.82
2024-04-16T03:25:26.611Z,5.82
2024-04-16T03:27:54.144Z,6.32
2024-04-16T03:30:21.685Z,7.25
2024-04-16T03:32:50.831Z,6.88
2024-04-16T03:35:18.462Z,5.95
2024-04-16T03:37:47.080Z,6.30
2024-04-16T03:40:14.643Z,10.07
2024-04-16T03:42:42.214Z,5.85
2024-04-16T03:45:09.749Z,6.43
2024-04-16T03:47:37.293Z,6.85
2024-04-16T03:50:05.230Z,6.75
2024-04-16T03:52:32.904Z,6.32
2024-04-16T03:55:00.604Z,5.57
2024-04-16T03:57:28.193Z,5.05
2024-04-16T03:59:55.658Z,7.32
2024-04-16T04:02:23.208Z,4.05
2024-04-16T04:04:50.766Z,3.55
2024-04-16T04:07:19.025Z,5.95
2024-04-16T04:09:47.691Z,7.55
2024-04-16T04:12:15.491Z,7.35
2024-04-16T04:14:44.142Z,8.75
2024-04-16T04:17:12.272Z,9.57
2024-04-16T04:19:39.927Z,6.97
2024-04-16T04:22:07.480Z,9.65
2024-04-16T04:24:35.774Z,7.90
2024-04-16T04:27:05.075Z,7.88
2024-04-16T04:29:32.619Z,11.23
2024-04-16T04:32:00.274Z,9.13
2024-04-16T04:34:27.964Z,8.25
2024-04-16T04:36:55.696Z,13.65
2024-04-16T04:39:23.272Z,5.63
2024-04-16T04:41:50.766Z,7.18
2024-04-16T04:44:18.336Z,12.27
2024-04-16T04:46:45.980Z,6.22
2024-04-16T04:49:13.600Z,10.32
2024-04-16T04:51:41.184Z,6.65
2024-04-16T04:54:08.903Z,7.88
2024-04-16T04:56:36.385Z,6.18
2024-04-16T04:59:03.977Z,12.02
2024-04-16T05:01:31.586Z,13.55
2024-04-16T05:03:59.390Z,7.38
2024-04-16T05:06:26.962Z,10.57
2024-04-16T05:08:54.486Z,7.15
2024-04-16T05:11:22.045Z,10.00
2024-04-16T05:13:49.760Z,8.57
2024-04-16T05:16:17.440Z,7.00
2024-04-16T05:18:45.565Z,11.50
2024-04-16T05:21:13.164Z,6.85
2024-04-16T05:23:40.749Z,8.18
2024-04-16T05:26:08.358Z,7.63
2024-04-16T05:28:36.168Z,9.52
2024-04-16T05:31:04.110Z,10.88
2024-04-16T05:33:31.716Z,11.45
2024-04-16T05:36:05.045Z,11.80
2024-04-16T05:38:34.937Z,10.68
2024-04-16T05:41:05.835Z,11.02
2024-04-16T05:43:33.467Z,9.32
2024-04-16T05:46:01.065Z,7.10
2024-04-16T05:48:28.802Z,8.77
2024-04-16T05:50:56.680Z,9.95
2024-04-16T05:53:24.203Z,10.00
2024-04-16T05:55:51.766Z,7.07
2024-04-16T05:58:19.446Z,6.35
2024-04-16T06:00:47.069Z,12.55
2024-04-16T06:03:14.585Z,7.53
2024-04-16T06:05:42.140Z,11.85
2024-04-16T06:08:09.691Z,9.75
2024-04-16T06:10:37.302Z,15.25
2024-04-16T06:13:05.152Z,7.82
2024-04-16T06:15:33.044Z,11.65
2024-04-16T06:18:00.634Z,8.38
2024-04-16T06:20:28.388Z,9.60
2024-04-16T06:22:56.585Z,10.73
2024-04-16T06:25:24.645Z,15.18
2024-04-16T06:27:52.200Z,8.02
2024-04-16T06:30:19.832Z,10.70
2024-04-16T06:32:47.441Z,9.82
2024-04-16T06:35:15.419Z,12.30
2024-04-16T06:37:43.189Z,15.07
2024-04-16T06:40:10.898Z,7.22
2024-04-16T06:42:38.455Z,6.68
2024-04-16T06:45:06.461Z,15.35
2024-04-16T06:47:34.176Z,10.88
2024-04-16T06:50:03.700Z,8.32
2024-04-16T06:52:31.600Z,8.50
2024-04-16T06:54:59.517Z,16.45
2024-04-16T06:57:27.917Z,10.52
2024-04-16T06:59:55.582Z,13.10
2024-04-16T07:02:23.248Z,12.20
2024-04-16T07:04:50.995Z,10.48
2024-04-16T07:07:18.569Z,7.38
2024-04-16T07:09:46.129Z,6.90
2024-04-16T07:12:13.816Z,6.53
2024-04-16T07:14:41.346Z,7.03
2024-04-16T07:17:09.031Z,7.15
2024-04-16T07:19:36.648Z,6.35
2024-04-16T07:22:04.830Z,5.53
2024-04-16T07:24:32.508Z,8.30
2024-04-16T07:27:00.027Z,6.13
2024-04-16T07:29:27.544Z,10.38
2024-04-16T07:31:55.100Z,15.05
2024-04-16T07:34:22.771Z,6.25
2024-04-16T07:36:50.417Z,6.82
2024-04-16T07:39:17.951Z,9.32
2024-04-16T07:41:47.036Z,11.07
2024-04-16T07:44:14.595Z,8.32
2024-04-16T07:46:42.230Z,8.63
2024-04-16T07:49:09.800Z,8.02
2024-04-16T07:51:37.307Z,5.22
2024-04-16T07:54:04.915Z,8.63
2024-04-16T07:56:32.418Z,13.75
2024-04-16T07:58:59.934Z,8.52
2024-04-16T08:01:27.617Z,7.72
2024-04-16T08:03:55.243Z,11.50
2024-04-16T08:06:22.806Z,7.47
2024-04-16T08:08:50.588Z,8.40
2024-04-16T08:11:18.223Z,12.13
2024-04-16T08:13:45.869Z,8.43
2024-04-16T08:16:13.575Z,12.43
2024-04-16T08:18:42.137Z,6.32
2024-04-16T08:21:09.929Z,13.43
2024-04-16T08:23:37.482Z,8.93
2024-04-16T08:26:09.079Z,7.18
2024-04-16T08:28:38.226Z,16.20
2024-04-16T08:31:06.661Z,9.25
2024-04-16T08:33:34.525Z,8.10
2024-04-16T08:36:02.223Z,10.63
2024-04-16T08:38:30.046Z,7.57
2024-04-16T08:40:57.686Z,4.97
2024-04-16T08:43:26.997Z,8.45
2024-04-16T08:45:56.423Z,6.45
2024-04-16T08:53:21.271Z,10.18
2024-04-16T08:55:50.420Z,9.32
2024-04-16T08:58:19.378Z,7.63
2024-04-16T09:00:48.236Z,8.07
2024-04-16T09:03:15.976Z,8.95
2024-04-16T09:05:44.465Z,8.63
2024-04-16T09:08:11.952Z,13.60
2024-04-16T09:10:39.602Z,9.90
2024-04-16T09:13:12.736Z,6.28
2024-04-16T09:15:40.753Z,12.52
2024-04-16T09:18:08.892Z,8.68
2024-04-16T09:20:36.735Z,6.82
2024-04-16T09:23:06.653Z,11.27
2024-04-16T09:25:40.561Z,9.38
2024-04-16T09:28:08.247Z,8.30
2024-04-16T09:30:35.975Z,11.18
2024-04-16T09:33:11.203Z,12.68
2024-04-16T09:35:43.523Z,8.85
2024-04-16T09:38:11.157Z,7.82
2024-04-16T09:40:38.905Z,8.23
2024-04-16T09:43:07.859Z,22.17
2024-04-16T09:45:36.868Z,13.43
2024-04-16T09:48:06.129Z,11.52
2024-04-16T09:50:46.142Z,9.48
2024-04-16T09:55:51.501Z,13.15
2024-04-16T09:58:19.441Z,7.18
2024-04-16T10:00:48.580Z,10.45
2024-04-16T10:03:16.663Z,12.45
2024-04-16T10:05:44.301Z,18.45
2024-04-16T10:08:14.516Z,20.02
2024-04-16T10:10:45.289Z,9.23
2024-04-16T10:13:14.628Z,7.82
2024-04-16T10:15:46.249Z,9.02
2024-04-16T10:18:13.961Z,8.52
2024-04-16T10:20:57.932Z,10.40
2024-04-16T10:23:25.475Z,9.05
2024-04-16T10:25:54.082Z,5.35
2024-04-16T10:28:33.007Z,10.23
2024-04-16T10:31:03.356Z,9.70
2024-04-16T10:33:38.780Z,7.90
2024-04-16T10:36:09.765Z,11.43
2024-04-16T10:38:37.825Z,4.57
2024-04-16T10:41:05.603Z,10.20
2024-04-16T10:43:37.370Z,9.60
2024-04-16T10:46:07.782Z,7.13
2024-04-16T10:48:36.070Z,10.27
2024-04-16T10:51:03.726Z,6.55
2024-04-16T10:53:31.488Z,8.07
2024-04-16T10:55:59.110Z,17.58
2024-04-16T10:58:26.653Z,12.30
2024-04-16T11:00:55.088Z,8.98
2024-04-16T11:03:23.067Z,7.70
2024-04-16T11:05:51.274Z,8.55
2024-04-16T11:08:19.204Z,9.02
2024-04-16T11:10:46.899Z,9.20
2024-04-16T11:13:14.619Z,11.02
2024-04-16T11:15:42.656Z,6.70
2024-04-16T11:18:10.428Z,10.80
2024-04-16T11:20:40.322Z,5.43
2024-04-16T11:23:08.274Z,9.65
2024-04-16T11:25:35.900Z,9.15
2024-04-16T11:28:03.574Z,11.98
2024-04-16T11:30:31.324Z,7.82
2024-04-16T11:33:00.209Z,7.53
2024-04-16T11:35:27.875Z,12.95
2024-04-16T11:37:55.388Z,11.82
2024-04-16T11:40:24.835Z,8.02
2024-04-16T11:42:52.452Z,8.90
2024-04-16T11:45:20.533Z,11.13
2024-04-16T11:47:48.933Z,12.50
2024-04-16T11:50:18.010Z,10.20
2024-04-16T11:52:45.527Z,9.80
2024-04-16T11:55:13.135Z,11.07
2024-04-16T11:57:40.752Z,10.38
2024-04-16T12:00:08.838Z,7.78
2024-04-16T12:02:38.150Z,6.43
2024-04-16T12:05:06.014Z,6.88
2024-04-16T12:07:33.735Z,11.10
2024-04-16T12:10:01.345Z,6.32
2024-04-16T12:12:29.004Z,12.43
2024-04-16T12:14:56.550Z,4.88
2024-04-16T12:17:24.173Z,10.68
2024-04-16T12:19:51.811Z,8.45
2024-04-16T12:22:19.510Z,6.65
2024-04-16T12:24:47.264Z,14.02
2024-04-16T12:27:14.778Z,10.65
2024-04-16T12:29:42.340Z,8.73
2024-04-16T12:32:10.300Z,14.75
2024-04-16T12:34:37.884Z,8.68
2024-04-16T12:37:05.585Z,13.30
2024-04-16T12:39:33.213Z,15.90
2024-04-16T12:42:00.678Z,11.82
2024-04-16T12:44:28.776Z,14.43
2024-04-16T12:46:56.336Z,10.60
2024-04-16T12:49:25.685Z,8.25
2024-04-16T12:51:54.537Z,5.53
2024-04-16T12:54:22.127Z,10.63
2024-04-16T12:56:52.675Z,5.85
2024-04-16T12:59:21.521Z,10.48
2024-04-16T13:01:49.104Z,8.35
2024-04-16T13:04:16.736Z,9.38
2024-04-16T13:06:44.339Z,10.52
2024-04-16T13:09:11.912Z,11.23
2024-04-16T13:11:39.481Z,7.00
2024-04-16T13:14:09.064Z,8.10
2024-04-16T13:16:37.544Z,6.00
2024-04-16T13:19:05.150Z,6.50
2024-04-16T13:21:32.971Z,13.18
2024-04-16T13:24:00.518Z,4.60
2024-04-16T13:26:28.159Z,7.63
2024-04-16T13:28:55.925Z,9.65
2024-04-16T13:31:23.556Z,10.30
2024-04-16T13:33:51.390Z,10.05
2024-04-16T13:36:18.902Z,8.70
2024-04-16T13:38:46.425Z,8.02
2024-04-16T13:41:13.975Z,7.65
2024-04-16T13:43:41.524Z,10.05
2024-04-16T13:46:09.078Z,9.70
2024-04-16T13:48:36.921Z,12.35
2024-04-16T13:51:05.102Z,10.98
2024-04-16T13:53:32.667Z,8.50
2024-04-16T13:56:00.358Z,10.80
2024-04-16T13:58:27.979Z,16.30
2024-04-16T14:00:55.872Z,13.43
2024-04-16T14:03:23.498Z,11.70
2024-04-16T14:05:51.052Z,14.02
2024-04-16T14:08:18.607Z,15.15
2024-04-16T14:10:46.395Z,16.67
2024-04-16T14:13:14.077Z,12.93
2024-04-16T14:15:41.618Z,14.65
2024-04-16T14:18:09.241Z,11.05
2024-04-16T14:20:36.800Z,12.80
2024-04-16T14:23:04.593Z,10.25
2024-04-16T14:25:32.153Z,13.15
2024-04-16T14:27:59.810Z,14.00
2024-04-16T14:30:27.597Z,13.38
2024-04-16T14:32:58.146Z,10.90
2024-04-16T14:35:25.860Z,11.15
2024-04-16T14:37:53.869Z,10.82
2024-04-16T14:40:21.465Z,18.83
2024-04-16T14:42:49.097Z,12.38
2024-04-16T14:45:16.733Z,10.82
2024-04-16T14:47:44.335Z,8.07
2024-04-16T14:50:11.934Z,12.82
2024-04-16T14:52:39.476Z,6.28
2024-04-16T14:55:07.083Z,7.25
2024-04-16T14:57:34.619Z,4.88
2024-04-16T15:00:02.149Z,8.52
2024-04-16T15:02:29.789Z,6.43
2024-04-16T15:04:57.430Z,11.07
2024-04-16T15:07:25.002Z,8.45
2024-04-16T15:09:52.589Z,6.40
2024-04-16T15:12:20.124Z,8.10
2024-04-16T15:14:47.629Z,7.30
2024-04-16T15:17:15.496Z,5.43
2024-04-16T15:19:43.258Z,6.88
2024-04-16T15:22:10.955Z,9.05
2024-04-16T15:24:38.507Z,11.38
2024-04-16T15:27:06.208Z,6.10
2024-04-16T15:29:33.926Z,7.18
2024-04-16T15:32:01.524Z,10.52
2024-04-16T15:34:29.166Z,11.25
2024-04-16T15:36:56.735Z,9.30
2024-04-16T15:39:24.277Z,7.95
2024-04-16T15:41:51.890Z,7.18
2024-04-16T15:44:19.389Z,8.52
2024-04-16T15:46:47.071Z,9.35
2024-04-16T15:49:14.680Z,6.90
2024-04-16T15:51:42.228Z,13.52
2024-04-16T15:54:09.770Z,7.93
2024-04-16T15:56:37.281Z,9.25
2024-04-16T15:59:04.784Z,11.38
2024-04-16T16:01:32.426Z,8.35
2024-04-16T16:04:00.264Z,7.90
2024-04-16T16:06:27.923Z,6.13
2024-04-16T16:08:55.776Z,8.10
2024-04-16T16:11:23.470Z,6.25
2024-04-16T16:13:51.071Z,5.28
2024-04-16T16:16:18.878Z,9.23
2024-04-16T16:18:46.778Z,7.35
2024-04-16T16:21:14.368Z,6.10
2024-04-16T16:23:42.016Z,5.50
2024-04-16T16:26:09.637Z,8.40
2024-04-16T16:28:38.322Z,6.10
2024-04-16T16:31:06.089Z,9.35
2024-04-16T16:33:33.693Z,5.55
2024-04-16T16:36:01.564Z,5.80
2024-04-16T16:38:29.203Z,7.22
2024-04-16T16:40:56.753Z,6.25
2024-04-16T16:43:24.844Z,7.18
2024-04-16T16:45:52.427Z,9.98
2024-04-16T16:48:20.019Z,22.02
2024-04-16T16:50:47.640Z,22.67
2024-04-16T16:53:18.393Z,8.40
2024-04-16T16:55:53.945Z,6.30
2024-04-16T16:58:21.861Z,9.77
2024-04-16T17:00:51.168Z,18.50
2024-04-16T17:03:19.012Z,8.45
2024-04-16T17:05:46.746Z,6.35
2024-04-16T17:08:14.271Z,13.90
2024-04-16T17:10:41.869Z,7.25
2024-04-16T17:13:09.482Z,9.75
2024-04-16T17:15:37.014Z,4.97
2024-04-16T17:18:07.136Z,5.82
2024-04-16T17:20:35.082Z,7.15
2024-04-16T17:23:03.929Z,9.10
2024-04-16T17:25:31.467Z,7.28
2024-04-16T17:27:59.056Z,4.53
2024-04-16T17:30:26.768Z,7.43
2024-04-16T17:32:54.815Z,11.13
2024-04-16T17:35:22.735Z,7.95
2024-04-16T17:37:50.509Z,7.10
2024-04-16T17:40:18.447Z,5.65
2024-04-16T17:42:45.977Z,3.35
2024-04-16T17:45:13.499Z,12.63
2024-04-16T17:47:41.182Z,10.75
2024-04-16T17:50:09.466Z,17.25
2024-04-16T17:52:37.432Z,8.93
2024-04-16T17:55:05.890Z,6.47
2024-04-16T17:57:33.453Z,6.82
2024-04-16T18:00:00.970Z,14.45
2024-04-16T18:02:28.649Z,15.52
2024-04-16T18:04:56.247Z,15.02
2024-04-16T18:07:23.774Z,18.88
2024-04-16T18:09:51.494Z,15.13
2024-04-16T18:12:19.033Z,19.10
2024-04-16T18:14:46.562Z,14.00
2024-04-16T18:17:14.184Z,16.52
2024-04-16T18:19:41.747Z,16.33
2024-04-16T18:22:09.395Z,18.67
2024-04-16T18:24:37.296Z,20.15
2024-04-16T18:27:04.838Z,25.05
2024-04-16T18:29:32.394Z,22.83
2024-04-16T18:31:59.985Z,22.13
2024-04-16T18:34:27.775Z,20.58
2024-04-16T18:36:55.389Z,23.90
2024-04-16T18:39:23.354Z,20.73
2024-04-16T18:41:50.984Z,21.73
2024-04-16T18:44:18.743Z,17.35
2024-04-16T18:46:46.575Z,22.27
2024-04-16T18:49:14.457Z,24.95
2024-04-16T18:51:42.564Z,27.85
2024-04-16T18:54:10.602Z,22.95
2024-04-16T18:56:38.738Z,22.05
2024-04-16T18:59:06.781Z,17.20
2024-04-16T19:01:34.910Z,22.95
2024-04-16T19:04:03.131Z,29.38
2024-04-16T19:06:31.264Z,23.00
2024-04-16T19:08:59.359Z,25.67
2024-04-16T19:11:27.458Z,30.08
2024-04-16T19:13:58.560Z,23.02
2024-04-16T19:16:26.590Z,21.17
2024-04-16T19:18:54.741Z,21.63
2024-04-16T19:21:22.901Z,22.40
2024-04-16T19:23:51.035Z,28.23
2024-04-16T19:26:20.704Z,25.23
2024-04-16T19:28:48.787Z,26.70
2024-04-16T19:31:17.041Z,17.92
2024-04-16T19:33:52.418Z,21.20
2024-04-16T19:36:23.808Z,29.00
2024-04-16T19:38:55.449Z,27.38
2024-04-16T19:41:24.293Z,23.33
2024-04-16T19:43:52.658Z,17.13
2024-04-16T19:46:21.531Z,24.98
2024-04-16T19:48:49.812Z,26.20
2024-04-16T19:51:18.291Z,28.80
2024-04-16T19:53:46.266Z,21.13
2024-04-16T19:56:17.044Z,21.67
2024-04-16T19:58:45.099Z,23.73
2024-04-16T20:01:16.453Z,32.90
2024-04-16T20:03:44.581Z,26.50
2024-04-16T20:06:19.410Z,26.27
2024-04-16T20:08:47.641Z,24.00
2024-04-16T20:11:15.828Z,23.63
2024-04-16T20:13:53.631Z,24.83
2024-04-16T20:16:23.064Z,29.35
2024-04-16T20:18:51.256Z,26.40
2024-04-16T20:21:19.468Z,20.42
2024-04-16T20:23:47.774Z,17.73
2024-04-16T20:26:16.358Z,21.92
2024-04-16T20:28:47.143Z,22.70
2024-04-16T20:31:19.285Z,19.85
2024-04-16T20:33:54.824Z,18.10
2024-04-16T20:41:18.977Z,24.98
2024-04-16T20:43:52.655Z,29.45
2024-04-16T20:46:23.614Z,23.88
2024-04-16T20:48:54.716Z,20.90
2024-04-16T20:51:22.841Z,18.65
2024-04-16T20:53:50.944Z,15.90
2024-04-16T20:56:22.011Z,19.95
2024-04-16T20:58:50.296Z,25.13
2024-04-16T21:01:18.422Z,15.85
2024-04-16T21:03:46.479Z,12.23
2024-04-16T21:06:14.526Z,17.13
2024-04-16T21:08:42.434Z,12.60
2024-04-16T21:11:10.597Z,17.10
2024-04-16T21:13:38.432Z,20.73
2024-04-16T21:16:06.564Z,20.35
2024-04-16T21:18:34.477Z,18.38
2024-04-16T21:21:02.243Z,18.98
2024-04-16T21:23:29.816Z,19.30
2024-04-16T21:25:57.399Z,17.35
2024-04-16T21:28:25.013Z,23.42
2024-04-16T21:30:52.606Z,13.75
2024-04-16T21:33:20.136Z,16.10
2024-04-16T21:35:48.101Z,17.48
2024-04-16T21:38:15.893Z,18.40
2024-04-16T21:40:43.423Z,21.23
2024-04-16T21:43:10.990Z,16.48
2024-04-16T21:45:39.060Z,18.73
2024-04-16T21:48:06.945Z,18.52
2024-04-16T21:50:34.452Z,19.48
2024-04-16T21:53:02.106Z,15.50
2024-04-16T21:55:29.613Z,22.45
2024-04-16T21:57:57.144Z,20.35
2024-04-16T22:00:25.212Z,15.85
2024-04-16T22:02:53.473Z,17.45
2024-04-16T22:05:22.488Z,14.77
2024-04-16T22:07:50.699Z,16.17
2024-04-16T22:10:19.062Z,10.63
2024-04-16T22:12:46.935Z,17.33
2024-04-16T22:15:14.782Z,14.77
2024-04-16T22:17:42.600Z,12.13
2024-04-16T22:20:10.308Z,14.10
2024-04-16T22:22:37.982Z,18.45
2024-04-16T22:25:05.983Z,16.88
2024-04-16T22:27:33.542Z,15.10
2024-04-16T22:30:01.123Z,18.10
2024-04-16T22:32:29.257Z,15.98
2024-04-16T22:34:56.889Z,13.07
2024-04-16T22:37:24.517Z,11.68
2024-04-16T22:39:52.317Z,16.48
2024-04-16T22:42:19.854Z,20.15
2024-04-16T22:47:32.283Z,15.07
2024-04-16T22:49:59.882Z,15.13
2024-04-16T22:52:27.728Z,14.25
2024-04-16T22:54:55.454Z,12.85
2024-04-16T22:57:23.010Z,17.30
2024-04-16T22:59:50.652Z,14.35
2024-04-16T23:02:18.395Z,21.30
2024-04-16T23:04:46.545Z,11.20
2024-04-16T23:07:14.284Z,15.65
2024-04-16T23:09:41.939Z,17.40
2024-04-16T23:12:09.568Z,20.30
2024-04-16T23:14:37.187Z,7.68
2024-04-16T23:17:05.231Z,15.85
2024-04-16T23:19:33.039Z,14.40
2024-04-16T23:22:01.424Z,22.15
2024-04-16T23:24:29.017Z,17.83
2024-04-16T23:26:56.665Z,13.60
2024-04-16T23:29:24.232Z,12.77
2024-04-16T23:31:51.834Z,13.85
2024-04-16T23:34:19.451Z,15.75
2024-04-16T23:36:47.045Z,16.58
2024-04-16T23:39:14.669Z,12.23
2024-04-16T23:41:42.243Z,12.18
2024-04-16T23:44:09.892Z,13.90
2024-04-16T23:46:37.788Z,14.45
2024-04-16T23:49:05.338Z,16.08
2024-04-16T23:51:32.922Z,27.20
2024-04-16T23:54:00.916Z,20.10
2024-04-16T23:56:28.511Z,14.98
2024-04-16T23:58:56.104Z,12.40
